Hlavní strana
METAR-TAF:

METAR-TAF

Letiště :

Cúcuta, Kolumbie

zeměpisná šířka: 07-56N, zeměpisná délka: 072-31W, výška: 250 m

Aktuální stav počasí

Zpráva byla vytvořena před 17 minutami, v 02:00 UTC
vítr z různých směrů 2 kt
Teplota 28°C
Vlhkost vzduchu 66%
Tlak 1015 hPa
Viditelnost: 8000 m
Polojasno ve výšce 2000 ft
Polojasno ve výšce 7000 ft

METAR: SKCC 260200Z VRB02KT 8000 SCT020 SCT070 28/21 A2996 RMK HZ

Čas: 21:17 (02:17 UTC)

Předpověď počasí

Zpráva byla vytvořena před 3 hodinami a 47 minutami, v 22:30 UTC
Předpověď platná od 26 v 00 UTC do 26 v 24 UTC
Severní vítr 5 kt
Viditelnost 10 km a více
Skoro jasno ve výšce 2000 ft
Změna
od 26 v 02 UTC do 26 v 04 UTC
Severní vítr 10 kt
Dočasný
od 26 v 09 UTC do 26 v 12 UTC
Viditelnost: 5000 m
chuchvalce mlhy

TAF: SKCC 252230Z 2600/2624 01005KT 9999 FEW020 BECMG 2602/2604 36010KT TEMPO 2609/2612 5000 BCFG TX30/2619Z TN22/2611Z

Stav a předpovědi počasí z více než 4 000 letišť (zprávy METAR a TAF).

Červené a žluté tečky na mapě představují dostupné meteorologické stanice.

Když kurzor umístíte na tečku, zobrazí se název stanice.

Pak kliknutím zobrazíte stav a předpověď počasí.

Chcete-li změnit mapu, kliknutím na zelené tlačítko se znaménkem +mapu přiblížíte, kliknutím na zelené tlačítko se znaménkem – mapu oddálíte a kliknutím na zelené šipky přejdete na sousední mapy.


METAR-TAF: